National Weather Service Raw Text Product

Displaying AFOS PIL: TAFMCW Received: 2018-01-12 07:56 UTC


838 
FTUS43 KDMX 120756 AAA
TAFMCW
TAF AMD
KMCW 120756Z 1208/1306 33021G28KT P6SM SCT010
     FM120900 34015KT P6SM SKC
     FM122300 34009KT P6SM BKN100=